Hurricane Mills, Tennessee
Current Conditions -  °F | °C
As of 6:15 PM on Sunday 23 Nov 2014 (Local Time) from KPVE Reporting Station
Overcast Overcast  
Wind Chill: 61°   Ceiling: 1000
Heat Index: 61°   Visibility: 4mi
Dew Point: 59°   Wind: 15mph
Humidity: 94%   Direction: 190°S
Pressure: 29.34"   Gusts: NA
Location:  35.97°N, 87.78°W
Report Text: KPVE 240015Z AUTO 19013KT 4SM BKN010 OVC015 16/15 A2934 RMK
Loading
Personal Weather Stations






























Interactive Weather Map New forecast layout! Learn more

10-Day Weather Forecast

Advertisements
Track Severe Weather on mobile